sensor_id;sensor_type;location;lat;lon;timestamp;P1;durP1;ratioP1;P2;durP2;ratioP2
30970;SDS011;17651;52.262;10.498;2024-03-06T00:00:11;24.75;;;13.98;;
30970;SDS011;17651;52.262;10.498;2024-03-06T00:02:22;22.55;;;13.18;;
30970;SDS011;17651;52.262;10.498;2024-03-06T00:04:33;24.48;;;14.25;;
30970;SDS011;17651;52.262;10.498;2024-03-06T00:06:45;22.85;;;14.27;;
30970;SDS011;17651;52.262;10.498;2024-03-06T00:08:56;23.27;;;14.10;;
30970;SDS011;17651;52.262;10.498;2024-03-06T00:11:07;23.90;;;14.25;;
30970;SDS011;17651;52.262;10.498;2024-03-06T00:13:18;21.25;;;13.38;;
30970;SDS011;17651;52.262;10.498;2024-03-06T00:15:30;21.50;;;13.82;;
30970;SDS011;17651;52.262;10.498;2024-03-06T00:17:41;20.60;;;13.07;;
30970;SDS011;17651;52.262;10.498;2024-03-06T00:19:52;22.48;;;14.00;;
30970;SDS011;17651;52.262;10.498;2024-03-06T00:22:03;19.30;;;13.25;;
30970;SDS011;17651;52.262;10.498;2024-03-06T00:24:15;23.90;;;14.00;;
30970;SDS011;17651;52.262;10.498;2024-03-06T00:26:26;21.25;;;14.38;;
30970;SDS011;17651;52.262;10.498;2024-03-06T00:28:37;21.55;;;13.32;;
30970;SDS011;17651;52.262;10.498;2024-03-06T00:30:48;25.77;;;15.25;;
30970;SDS011;17651;52.262;10.498;2024-03-06T00:32:59;24.38;;;13.68;;
30970;SDS011;17651;52.262;10.498;2024-03-06T00:35:11;24.90;;;15.27;;
30970;SDS011;17651;52.262;10.498;2024-03-06T00:37:22;26.50;;;14.32;;
30970;SDS011;17651;52.262;10.498;2024-03-06T00:39:33;23.15;;;13.63;;
30970;SDS011;17651;52.262;10.498;2024-03-06T00:41:44;24.40;;;15.20;;
30970;SDS011;17651;52.262;10.498;2024-03-06T00:43:55;29.10;;;14.55;;
30970;SDS011;17651;52.262;10.498;2024-03-06T00:46:06;23.50;;;12.68;;
30970;SDS011;17651;52.262;10.498;2024-03-06T00:48:17;21.63;;;13.32;;
30970;SDS011;17651;52.262;10.498;2024-03-06T00:50:30;21.63;;;13.13;;
30970;SDS011;17651;52.262;10.498;2024-03-06T00:52:41;23.98;;;13.77;;
30970;SDS011;17651;52.262;10.498;2024-03-06T00:54:52;21.60;;;13.18;;
30970;SDS011;17651;52.262;10.498;2024-03-06T00:57:03;21.58;;;12.85;;
30970;SDS011;17651;52.262;10.498;2024-03-06T00:59:14;23.40;;;14.15;;
30970;SDS011;17651;52.262;10.498;2024-03-06T01:01:26;23.83;;;14.20;;
30970;SDS011;17651;52.262;10.498;2024-03-06T01:03:37;25.75;;;13.60;;
30970;SDS011;17651;52.262;10.498;2024-03-06T01:05:49;25.90;;;13.75;;
30970;SDS011;17651;52.262;10.498;2024-03-06T01:08:00;21.45;;;13.52;;
30970;SDS011;17651;52.262;10.498;2024-03-06T01:10:12;22.02;;;14.68;;
30970;SDS011;17651;52.262;10.498;2024-03-06T01:12:23;23.27;;;13.52;;
30970;SDS011;17651;52.262;10.498;2024-03-06T01:14:34;22.67;;;14.68;;
30970;SDS011;17651;52.262;10.498;2024-03-06T01:16:45;23.80;;;14.02;;
30970;SDS011;17651;52.262;10.498;2024-03-06T01:18:56;21.10;;;13.85;;
30970;SDS011;17651;52.262;10.498;2024-03-06T01:21:07;22.73;;;14.02;;
30970;SDS011;17651;52.262;10.498;2024-03-06T01:23:18;23.92;;;14.95;;
30970;SDS011;17651;52.262;10.498;2024-03-06T01:25:30;25.17;;;13.70;;
30970;SDS011;17651;52.262;10.498;2024-03-06T01:27:41;21.23;;;14.48;;
30970;SDS011;17651;52.262;10.498;2024-03-06T01:29:52;23.48;;;13.98;;
30970;SDS011;17651;52.262;10.498;2024-03-06T01:32:03;20.70;;;13.40;;
30970;SDS011;17651;52.262;10.498;2024-03-06T01:34:14;26.08;;;13.63;;
30970;SDS011;17651;52.262;10.498;2024-03-06T01:36:25;25.15;;;14.40;;
30970;SDS011;17651;52.262;10.498;2024-03-06T01:38:36;24.40;;;13.55;;
30970;SDS011;17651;52.262;10.498;2024-03-06T01:40:47;22.08;;;13.95;;
30970;SDS011;17651;52.262;10.498;2024-03-06T01:42:58;22.15;;;13.70;;
30970;SDS011;17651;52.262;10.498;2024-03-06T01:45:11;26.63;;;15.43;;
30970;SDS011;17651;52.262;10.498;2024-03-06T01:47:22;21.08;;;13.40;;
30970;SDS011;17651;52.262;10.498;2024-03-06T01:49:33;24.48;;;13.68;;
30970;SDS011;17651;52.262;10.498;2024-03-06T01:51:45;20.02;;;12.90;;
30970;SDS011;17651;52.262;10.498;2024-03-06T01:53:59;23.90;;;13.48;;
30970;SDS011;17651;52.262;10.498;2024-03-06T01:56:13;21.30;;;13.68;;
30970;SDS011;17651;52.262;10.498;2024-03-06T01:58:27;20.17;;;13.38;;
30970;SDS011;17651;52.262;10.498;2024-03-06T02:00:39;19.20;;;13.02;;
30970;SDS011;17651;52.262;10.498;2024-03-06T02:02:50;24.67;;;14.82;;
30970;SDS011;17651;52.262;10.498;2024-03-06T02:05:01;25.75;;;14.48;;
30970;SDS011;17651;52.262;10.498;2024-03-06T02:07:13;21.00;;;13.82;;
30970;SDS011;17651;52.262;10.498;2024-03-06T02:09:25;21.95;;;12.73;;
30970;SDS011;17651;52.262;10.498;2024-03-06T02:11:36;20.67;;;13.35;;
30970;SDS011;17651;52.262;10.498;2024-03-06T02:13:49;23.67;;;13.27;;
30970;SDS011;17651;52.262;10.498;2024-03-06T02:16:00;21.20;;;13.30;;
30970;SDS011;17651;52.262;10.498;2024-03-06T02:18:11;24.48;;;14.00;;
30970;SDS011;17651;52.262;10.498;2024-03-06T02:20:23;22.55;;;13.77;;
30970;SDS011;17651;52.262;10.498;2024-03-06T02:22:34;23.83;;;14.35;;
30970;SDS011;17651;52.262;10.498;2024-03-06T02:24:47;22.77;;;13.30;;
30970;SDS011;17651;52.262;10.498;2024-03-06T02:26:59;26.27;;;14.50;;
30970;SDS011;17651;52.262;10.498;2024-03-06T02:29:10;20.58;;;12.95;;
30970;SDS011;17651;52.262;10.498;2024-03-06T02:31:21;19.70;;;12.50;;
30970;SDS011;17651;52.262;10.498;2024-03-06T02:33:33;20.98;;;13.88;;
30970;SDS011;17651;52.262;10.498;2024-03-06T02:35:44;24.40;;;14.63;;
30970;SDS011;17651;52.262;10.498;2024-03-06T02:37:56;25.20;;;14.07;;
30970;SDS011;17651;52.262;10.498;2024-03-06T02:40:07;26.02;;;14.57;;
30970;SDS011;17651;52.262;10.498;2024-03-06T02:42:20;25.63;;;14.02;;
30970;SDS011;17651;52.262;10.498;2024-03-06T02:44:31;26.95;;;14.05;;
30970;SDS011;17651;52.262;10.498;2024-03-06T02:46:42;25.13;;;13.98;;
30970;SDS011;17651;52.262;10.498;2024-03-06T02:48:56;24.10;;;15.43;;
30970;SDS011;17651;52.262;10.498;2024-03-06T02:51:07;26.35;;;13.82;;
30970;SDS011;17651;52.262;10.498;2024-03-06T02:53:19;23.80;;;14.52;;
30970;SDS011;17651;52.262;10.498;2024-03-06T02:55:30;22.55;;;14.45;;
30970;SDS011;17651;52.262;10.498;2024-03-06T02:57:41;23.60;;;14.60;;
30970;SDS011;17651;52.262;10.498;2024-03-06T02:59:52;22.75;;;14.48;;
30970;SDS011;17651;52.262;10.498;2024-03-06T03:02:03;21.45;;;13.73;;
30970;SDS011;17651;52.262;10.498;2024-03-06T03:04:14;21.33;;;13.73;;
30970;SDS011;17651;52.262;10.498;2024-03-06T03:06:25;24.40;;;13.27;;
30970;SDS011;17651;52.262;10.498;2024-03-06T03:08:37;24.63;;;13.38;;
30970;SDS011;17651;52.262;10.498;2024-03-06T03:10:48;23.98;;;13.30;;
30970;SDS011;17651;52.262;10.498;2024-03-06T03:12:59;19.00;;;13.32;;
30970;SDS011;17651;52.262;10.498;2024-03-06T03:15:10;26.13;;;14.32;;
30970;SDS011;17651;52.262;10.498;2024-03-06T03:17:21;23.30;;;14.52;;
30970;SDS011;17651;52.262;10.498;2024-03-06T03:19:32;22.50;;;13.80;;
30970;SDS011;17651;52.262;10.498;2024-03-06T03:21:44;25.70;;;14.32;;
30970;SDS011;17651;52.262;10.498;2024-03-06T03:23:55;27.75;;;14.80;;
30970;SDS011;17651;52.262;10.498;2024-03-06T03:26:07;23.48;;;14.20;;
30970;SDS011;17651;52.262;10.498;2024-03-06T03:28:20;22.90;;;14.02;;
30970;SDS011;17651;52.262;10.498;2024-03-06T03:30:34;23.73;;;13.65;;
30970;SDS011;17651;52.262;10.498;2024-03-06T03:32:45;24.92;;;14.32;;
30970;SDS011;17651;52.262;10.498;2024-03-06T03:34:56;24.20;;;13.63;;
30970;SDS011;17651;52.262;10.498;2024-03-06T03:37:07;24.92;;;14.52;;
30970;SDS011;17651;52.262;10.498;2024-03-06T03:39:19;24.55;;;14.48;;
30970;SDS011;17651;52.262;10.498;2024-03-06T03:41:32;23.40;;;15.23;;
30970;SDS011;17651;52.262;10.498;2024-03-06T03:43:43;25.00;;;13.90;;
30970;SDS011;17651;52.262;10.498;2024-03-06T03:45:54;22.50;;;13.43;;
30970;SDS011;17651;52.262;10.498;2024-03-06T03:48:05;26.42;;;15.65;;
30970;SDS011;17651;52.262;10.498;2024-03-06T03:50:16;27.42;;;14.38;;
30970;SDS011;17651;52.262;10.498;2024-03-06T03:52:27;23.15;;;13.95;;
30970;SDS011;17651;52.262;10.498;2024-03-06T03:54:38;25.25;;;15.07;;
30970;SDS011;17651;52.262;10.498;2024-03-06T03:56:49;22.95;;;14.30;;
30970;SDS011;17651;52.262;10.498;2024-03-06T03:59:01;23.88;;;15.50;;
30970;SDS011;17651;52.262;10.498;2024-03-06T04:01:13;23.20;;;14.98;;
30970;SDS011;17651;52.262;10.498;2024-03-06T04:03:24;27.98;;;15.63;;
30970;SDS011;17651;52.262;10.498;2024-03-06T04:05:35;25.25;;;14.77;;
30970;SDS011;17651;52.262;10.498;2024-03-06T04:07:46;27.02;;;14.45;;
30970;SDS011;17651;52.262;10.498;2024-03-06T04:09:57;28.85;;;14.82;;
30970;SDS011;17651;52.262;10.498;2024-03-06T04:12:08;21.42;;;14.38;;
30970;SDS011;17651;52.262;10.498;2024-03-06T04:14:19;23.40;;;15.23;;
30970;SDS011;17651;52.262;10.498;2024-03-06T04:16:31;26.50;;;15.23;;
30970;SDS011;17651;52.262;10.498;2024-03-06T04:18:42;28.40;;;15.93;;
30970;SDS011;17651;52.262;10.498;2024-03-06T04:20:53;24.70;;;15.30;;
30970;SDS011;17651;52.262;10.498;2024-03-06T04:23:04;24.88;;;15.18;;
30970;SDS011;17651;52.262;10.498;2024-03-06T04:25:15;23.65;;;14.80;;
30970;SDS011;17651;52.262;10.498;2024-03-06T04:27:26;29.40;;;14.65;;
30970;SDS011;17651;52.262;10.498;2024-03-06T04:29:37;25.05;;;14.88;;
30970;SDS011;17651;52.262;10.498;2024-03-06T04:31:48;25.13;;;15.70;;
30970;SDS011;17651;52.262;10.498;2024-03-06T04:33:59;24.33;;;15.55;;
30970;SDS011;17651;52.262;10.498;2024-03-06T04:36:10;24.70;;;15.10;;
30970;SDS011;17651;52.262;10.498;2024-03-06T04:38:21;25.65;;;14.98;;
30970;SDS011;17651;52.262;10.498;2024-03-06T04:40:33;23.25;;;15.00;;
30970;SDS011;17651;52.262;10.498;2024-03-06T04:42:45;28.35;;;14.32;;
30970;SDS011;17651;52.262;10.498;2024-03-06T04:44:57;27.33;;;15.95;;
30970;SDS011;17651;52.262;10.498;2024-03-06T04:47:08;27.83;;;15.82;;
30970;SDS011;17651;52.262;10.498;2024-03-06T04:49:19;27.58;;;15.88;;
30970;SDS011;17651;52.262;10.498;2024-03-06T04:51:30;23.13;;;15.18;;
30970;SDS011;17651;52.262;10.498;2024-03-06T04:53:41;27.38;;;15.95;;
30970;SDS011;17651;52.262;10.498;2024-03-06T04:55:52;25.63;;;15.35;;
30970;SDS011;17651;52.262;10.498;2024-03-06T04:58:03;29.48;;;15.40;;
30970;SDS011;17651;52.262;10.498;2024-03-06T05:00:14;26.67;;;15.35;;
30970;SDS011;17651;52.262;10.498;2024-03-06T05:02:26;28.13;;;16.30;;
30970;SDS011;17651;52.262;10.498;2024-03-06T05:04:37;27.13;;;16.80;;
30970;SDS011;17651;52.262;10.498;2024-03-06T05:06:48;24.10;;;15.95;;
30970;SDS011;17651;52.262;10.498;2024-03-06T05:09:00;29.58;;;15.82;;
30970;SDS011;17651;52.262;10.498;2024-03-06T05:11:12;29.05;;;16.00;;
30970;SDS011;17651;52.262;10.498;2024-03-06T05:13:23;30.00;;;16.00;;
30970;SDS011;17651;52.262;10.498;2024-03-06T05:15:36;29.85;;;15.38;;
30970;SDS011;17651;52.262;10.498;2024-03-06T05:17:47;30.70;;;16.15;;
30970;SDS011;17651;52.262;10.498;2024-03-06T05:19:58;28.20;;;15.98;;
30970;SDS011;17651;52.262;10.498;2024-03-06T05:22:09;23.30;;;15.55;;
30970;SDS011;17651;52.262;10.498;2024-03-06T05:24:21;28.52;;;16.75;;
30970;SDS011;17651;52.262;10.498;2024-03-06T05:26:32;25.25;;;15.85;;
30970;SDS011;17651;52.262;10.498;2024-03-06T05:28:43;27.20;;;16.27;;
30970;SDS011;17651;52.262;10.498;2024-03-06T05:30:54;24.25;;;15.45;;
30970;SDS011;17651;52.262;10.498;2024-03-06T05:33:05;24.88;;;15.48;;
30970;SDS011;17651;52.262;10.498;2024-03-06T05:35:16;26.73;;;16.13;;
30970;SDS011;17651;52.262;10.498;2024-03-06T05:37:28;28.50;;;16.50;;
30970;SDS011;17651;52.262;10.498;2024-03-06T05:39:39;24.83;;;15.30;;
30970;SDS011;17651;52.262;10.498;2024-03-06T05:41:55;31.05;;;18.20;;
30970;SDS011;17651;52.262;10.498;2024-03-06T05:44:06;53.08;;;25.98;;
30970;SDS011;17651;52.262;10.498;2024-03-06T05:46:17;37.50;;;21.55;;
30970;SDS011;17651;52.262;10.498;2024-03-06T05:48:29;50.35;;;23.58;;
30970;SDS011;17651;52.262;10.498;2024-03-06T05:50:40;48.83;;;23.83;;
30970;SDS011;17651;52.262;10.498;2024-03-06T05:52:51;37.88;;;20.67;;
30970;SDS011;17651;52.262;10.498;2024-03-06T05:55:03;39.97;;;20.83;;
30970;SDS011;17651;52.262;10.498;2024-03-06T05:57:16;33.15;;;18.88;;
30970;SDS011;17651;52.262;10.498;2024-03-06T05:59:27;32.40;;;18.23;;
30970;SDS011;17651;52.262;10.498;2024-03-06T06:01:38;35.08;;;17.67;;
30970;SDS011;17651;52.262;10.498;2024-03-06T06:03:50;30.05;;;17.45;;
30970;SDS011;17651;52.262;10.498;2024-03-06T06:06:01;33.35;;;17.67;;
30970;SDS011;17651;52.262;10.498;2024-03-06T06:08:13;34.65;;;18.88;;
30970;SDS011;17651;52.262;10.498;2024-03-06T06:10:24;32.67;;;20.17;;
30970;SDS011;17651;52.262;10.498;2024-03-06T06:12:35;33.20;;;20.02;;
30970;SDS011;17651;52.262;10.498;2024-03-06T06:14:46;31.80;;;17.58;;
30970;SDS011;17651;52.262;10.498;2024-03-06T06:16:57;27.23;;;17.73;;
30970;SDS011;17651;52.262;10.498;2024-03-06T06:19:08;28.42;;;16.15;;
30970;SDS011;17651;52.262;10.498;2024-03-06T06:21:19;31.45;;;17.75;;
30970;SDS011;17651;52.262;10.498;2024-03-06T06:23:30;31.75;;;16.77;;
30970;SDS011;17651;52.262;10.498;2024-03-06T06:25:41;28.48;;;16.70;;
30970;SDS011;17651;52.262;10.498;2024-03-06T06:27:52;31.15;;;16.80;;
30970;SDS011;17651;52.262;10.498;2024-03-06T06:30:03;28.10;;;17.40;;
30970;SDS011;17651;52.262;10.498;2024-03-06T06:32:15;27.90;;;15.70;;
30970;SDS011;17651;52.262;10.498;2024-03-06T06:34:26;27.23;;;15.93;;
30970;SDS011;17651;52.262;10.498;2024-03-06T06:36:37;32.42;;;17.63;;
30970;SDS011;17651;52.262;10.498;2024-03-06T06:38:51;36.50;;;18.25;;
30970;SDS011;17651;52.262;10.498;2024-03-06T06:41:02;26.58;;;16.15;;
30970;SDS011;17651;52.262;10.498;2024-03-06T06:43:13;29.98;;;16.83;;
30970;SDS011;17651;52.262;10.498;2024-03-06T06:45:25;31.02;;;17.23;;
30970;SDS011;17651;52.262;10.498;2024-03-06T06:47:36;30.13;;;17.25;;
30970;SDS011;17651;52.262;10.498;2024-03-06T06:49:49;27.77;;;16.27;;
30970;SDS011;17651;52.262;10.498;2024-03-06T06:52:00;31.17;;;16.52;;
30970;SDS011;17651;52.262;10.498;2024-03-06T06:54:11;29.92;;;17.42;;
30970;SDS011;17651;52.262;10.498;2024-03-06T06:56:22;30.92;;;17.83;;
30970;SDS011;17651;52.262;10.498;2024-03-06T06:58:34;32.38;;;17.80;;
30970;SDS011;17651;52.262;10.498;2024-03-06T07:00:45;32.80;;;17.52;;
30970;SDS011;17651;52.262;10.498;2024-03-06T07:02:56;33.05;;;17.83;;
30970;SDS011;17651;52.262;10.498;2024-03-06T07:05:09;29.38;;;17.98;;
30970;SDS011;17651;52.262;10.498;2024-03-06T07:07:20;29.70;;;17.65;;
30970;SDS011;17651;52.262;10.498;2024-03-06T07:09:31;27.83;;;17.88;;
30970;SDS011;17651;52.262;10.498;2024-03-06T07:11:44;33.38;;;18.30;;
30970;SDS011;17651;52.262;10.498;2024-03-06T07:13:55;35.63;;;18.60;;
30970;SDS011;17651;52.262;10.498;2024-03-06T07:16:06;30.45;;;17.48;;
30970;SDS011;17651;52.262;10.498;2024-03-06T07:18:18;31.90;;;18.08;;
30970;SDS011;17651;52.262;10.498;2024-03-06T07:20:29;30.33;;;16.85;;
30970;SDS011;17651;52.262;10.498;2024-03-06T07:22:41;29.65;;;17.65;;
30970;SDS011;17651;52.262;10.498;2024-03-06T07:24:52;29.98;;;18.52;;
30970;SDS011;17651;52.262;10.498;2024-03-06T07:27:03;30.25;;;18.33;;
30970;SDS011;17651;52.262;10.498;2024-03-06T07:29:15;29.88;;;18.15;;
30970;SDS011;17651;52.262;10.498;2024-03-06T07:31:26;29.80;;;17.83;;
30970;SDS011;17651;52.262;10.498;2024-03-06T07:33:37;30.83;;;17.83;;
30970;SDS011;17651;52.262;10.498;2024-03-06T07:35:48;30.17;;;17.55;;
30970;SDS011;17651;52.262;10.498;2024-03-06T07:37:59;30.73;;;17.13;;
30970;SDS011;17651;52.262;10.498;2024-03-06T07:40:10;30.05;;;18.17;;
30970;SDS011;17651;52.262;10.498;2024-03-06T07:42:21;31.08;;;17.45;;
30970;SDS011;17651;52.262;10.498;2024-03-06T07:44:33;31.38;;;18.05;;
30970;SDS011;17651;52.262;10.498;2024-03-06T07:46:46;33.83;;;18.00;;
30970;SDS011;17651;52.262;10.498;2024-03-06T07:48:57;27.52;;;17.05;;
30970;SDS011;17651;52.262;10.498;2024-03-06T07:51:09;29.73;;;16.35;;
30970;SDS011;17651;52.262;10.498;2024-03-06T07:53:20;29.00;;;16.70;;
30970;SDS011;17651;52.262;10.498;2024-03-06T07:55:31;32.10;;;17.25;;
30970;SDS011;17651;52.262;10.498;2024-03-06T07:57:42;31.83;;;19.17;;
30970;SDS011;17651;52.262;10.498;2024-03-06T07:59:53;29.00;;;17.77;;
30970;SDS011;17651;52.262;10.498;2024-03-06T08:02:04;29.90;;;17.80;;
30970;SDS011;17651;52.262;10.498;2024-03-06T08:04:16;32.95;;;17.60;;
30970;SDS011;17651;52.262;10.498;2024-03-06T08:06:28;34.63;;;18.35;;
30970;SDS011;17651;52.262;10.498;2024-03-06T08:08:40;34.40;;;18.33;;
30970;SDS011;17651;52.262;10.498;2024-03-06T08:10:51;34.60;;;18.52;;
30970;SDS011;17651;52.262;10.498;2024-03-06T08:13:02;34.42;;;19.58;;
30970;SDS011;17651;52.262;10.498;2024-03-06T08:15:14;38.80;;;18.25;;
30970;SDS011;17651;52.262;10.498;2024-03-06T08:17:25;37.38;;;18.30;;
30970;SDS011;17651;52.262;10.498;2024-03-06T08:19:36;32.50;;;18.75;;
30970;SDS011;17651;52.262;10.498;2024-03-06T08:21:47;33.88;;;18.00;;
30970;SDS011;17651;52.262;10.498;2024-03-06T08:23:58;29.15;;;17.20;;
30970;SDS011;17651;52.262;10.498;2024-03-06T08:26:09;32.53;;;19.90;;
30970;SDS011;17651;52.262;10.498;2024-03-06T08:28:20;31.52;;;18.88;;
30970;SDS011;17651;52.262;10.498;2024-03-06T08:30:32;34.63;;;19.00;;
30970;SDS011;17651;52.262;10.498;2024-03-06T08:32:43;31.88;;;18.85;;
30970;SDS011;17651;52.262;10.498;2024-03-06T08:34:54;33.92;;;18.50;;
30970;SDS011;17651;52.262;10.498;2024-03-06T08:37:05;37.10;;;18.45;;
30970;SDS011;17651;52.262;10.498;2024-03-06T08:39:16;30.55;;;18.42;;
30970;SDS011;17651;52.262;10.498;2024-03-06T08:41:27;34.53;;;18.73;;
30970;SDS011;17651;52.262;10.498;2024-03-06T08:43:38;32.40;;;18.52;;
30970;SDS011;17651;52.262;10.498;2024-03-06T08:45:50;32.30;;;18.65;;
30970;SDS011;17651;52.262;10.498;2024-03-06T08:48:01;36.30;;;18.33;;
30970;SDS011;17651;52.262;10.498;2024-03-06T08:50:14;32.75;;;19.13;;
30970;SDS011;17651;52.262;10.498;2024-03-06T08:52:25;33.95;;;19.45;;
30970;SDS011;17651;52.262;10.498;2024-03-06T08:54:36;33.90;;;20.47;;
30970;SDS011;17651;52.262;10.498;2024-03-06T08:56:47;34.63;;;18.83;;
30970;SDS011;17651;52.262;10.498;2024-03-06T08:58:58;33.15;;;18.50;;
30970;SDS011;17651;52.262;10.498;2024-03-06T09:01:09;37.53;;;20.73;;
30970;SDS011;17651;52.262;10.498;2024-03-06T09:03:20;34.25;;;19.48;;
30970;SDS011;17651;52.262;10.498;2024-03-06T09:05:32;38.17;;;21.00;;
30970;SDS011;17651;52.262;10.498;2024-03-06T09:07:44;39.83;;;20.17;;
30970;SDS011;17651;52.262;10.498;2024-03-06T09:09:55;32.97;;;19.85;;
30970;SDS011;17651;52.262;10.498;2024-03-06T09:12:07;37.30;;;21.42;;
30970;SDS011;17651;52.262;10.498;2024-03-06T09:14:20;41.03;;;22.00;;
30970;SDS011;17651;52.262;10.498;2024-03-06T09:16:33;38.70;;;20.25;;
30970;SDS011;17651;52.262;10.498;2024-03-06T09:18:44;36.22;;;20.20;;
30970;SDS011;17651;52.262;10.498;2024-03-06T09:20:55;41.78;;;22.15;;
30970;SDS011;17651;52.262;10.498;2024-03-06T09:23:06;47.13;;;22.80;;
30970;SDS011;17651;52.262;10.498;2024-03-06T09:25:17;39.75;;;21.88;;
30970;SDS011;17651;52.262;10.498;2024-03-06T09:27:28;42.45;;;23.83;;
30970;SDS011;17651;52.262;10.498;2024-03-06T09:29:40;39.47;;;21.95;;
30970;SDS011;17651;52.262;10.498;2024-03-06T09:31:51;41.97;;;24.10;;
30970;SDS011;17651;52.262;10.498;2024-03-06T09:34:02;39.35;;;22.92;;
30970;SDS011;17651;52.262;10.498;2024-03-06T09:36:13;38.08;;;23.17;;
30970;SDS011;17651;52.262;10.498;2024-03-06T09:38:24;48.88;;;24.25;;
30970;SDS011;17651;52.262;10.498;2024-03-06T09:40:36;40.58;;;24.00;;
30970;SDS011;17651;52.262;10.498;2024-03-06T09:42:47;42.15;;;22.55;;
30970;SDS011;17651;52.262;10.498;2024-03-06T09:44:59;41.20;;;23.15;;
30970;SDS011;17651;52.262;10.498;2024-03-06T09:47:12;40.58;;;22.67;;
30970;SDS011;17651;52.262;10.498;2024-03-06T09:49:26;41.47;;;21.50;;
30970;SDS011;17651;52.262;10.498;2024-03-06T09:51:38;41.08;;;21.75;;
30970;SDS011;17651;52.262;10.498;2024-03-06T09:53:51;38.97;;;20.98;;
30970;SDS011;17651;52.262;10.498;2024-03-06T09:56:03;38.60;;;21.45;;
30970;SDS011;17651;52.262;10.498;2024-03-06T09:58:15;36.38;;;20.48;;
30970;SDS011;17651;52.262;10.498;2024-03-06T10:00:26;32.22;;;18.77;;
30970;SDS011;17651;52.262;10.498;2024-03-06T10:02:39;36.58;;;20.08;;
30970;SDS011;17651;52.262;10.498;2024-03-06T10:04:52;32.03;;;19.02;;
30970;SDS011;17651;52.262;10.498;2024-03-06T10:07:03;35.45;;;19.50;;
30970;SDS011;17651;52.262;10.498;2024-03-06T10:09:18;34.13;;;20.55;;
30970;SDS011;17651;52.262;10.498;2024-03-06T10:11:29;31.17;;;18.45;;
30970;SDS011;17651;52.262;10.498;2024-03-06T10:13:42;32.13;;;18.50;;
30970;SDS011;17651;52.262;10.498;2024-03-06T10:16:00;30.05;;;18.20;;
30970;SDS011;17651;52.262;10.498;2024-03-06T10:18:12;34.58;;;17.92;;
30970;SDS011;17651;52.262;10.498;2024-03-06T10:20:23;30.13;;;18.38;;
30970;SDS011;17651;52.262;10.498;2024-03-06T10:22:35;29.23;;;18.10;;
30970;SDS011;17651;52.262;10.498;2024-03-06T10:24:47;36.38;;;19.15;;
30970;SDS011;17651;52.262;10.498;2024-03-06T10:26:58;27.75;;;17.45;;
30970;SDS011;17651;52.262;10.498;2024-03-06T10:29:10;33.78;;;19.67;;
30970;SDS011;17651;52.262;10.498;2024-03-06T10:31:28;27.55;;;18.13;;
30970;SDS011;17651;52.262;10.498;2024-03-06T10:33:39;30.88;;;18.17;;
30970;SDS011;17651;52.262;10.498;2024-03-06T10:35:54;30.48;;;18.33;;
30970;SDS011;17651;52.262;10.498;2024-03-06T10:38:06;30.15;;;18.10;;
30970;SDS011;17651;52.262;10.498;2024-03-06T10:40:17;29.30;;;17.83;;
30970;SDS011;17651;52.262;10.498;2024-03-06T10:42:29;34.30;;;18.88;;
30970;SDS011;17651;52.262;10.498;2024-03-06T10:44:44;28.85;;;18.20;;
30970;SDS011;17651;52.262;10.498;2024-03-06T10:49:11;35.53;;;17.75;;
30970;SDS011;17651;52.262;10.498;2024-03-06T10:51:22;32.55;;;19.45;;
30970;SDS011;17651;52.262;10.498;2024-03-06T10:53:33;33.60;;;17.67;;
30970;SDS011;17651;52.262;10.498;2024-03-06T10:55:45;27.85;;;17.48;;
30970;SDS011;17651;52.262;10.498;2024-03-06T10:57:56;27.77;;;17.88;;
30970;SDS011;17651;52.262;10.498;2024-03-06T11:00:08;33.22;;;18.33;;
30970;SDS011;17651;52.262;10.498;2024-03-06T11:02:20;28.65;;;17.58;;
30970;SDS011;17651;52.262;10.498;2024-03-06T11:04:33;32.60;;;19.00;;
30970;SDS011;17651;52.262;10.498;2024-03-06T11:06:44;30.90;;;18.25;;
30970;SDS011;17651;52.262;10.498;2024-03-06T11:08:55;32.33;;;18.20;;
30970;SDS011;17651;52.262;10.498;2024-03-06T11:11:23;33.72;;;17.83;;
30970;SDS011;17651;52.262;10.498;2024-03-06T11:13:34;31.73;;;18.05;;
30970;SDS011;17651;52.262;10.498;2024-03-06T11:15:47;37.25;;;18.55;;
30970;SDS011;17651;52.262;10.498;2024-03-06T11:17:58;31.55;;;17.17;;
30970;SDS011;17651;52.262;10.498;2024-03-06T11:24:54;33.28;;;18.00;;
30970;SDS011;17651;52.262;10.498;2024-03-06T11:27:05;28.60;;;17.25;;
30970;SDS011;17651;52.262;10.498;2024-03-06T11:29:18;31.38;;;18.67;;
30970;SDS011;17651;52.262;10.498;2024-03-06T11:31:29;29.05;;;18.08;;
30970;SDS011;17651;52.262;10.498;2024-03-06T11:33:41;30.67;;;18.48;;
30970;SDS011;17651;52.262;10.498;2024-03-06T11:40:42;30.13;;;17.98;;
30970;SDS011;17651;52.262;10.498;2024-03-06T11:42:54;31.13;;;17.60;;
30970;SDS011;17651;52.262;10.498;2024-03-06T11:45:26;26.77;;;17.70;;
30970;SDS011;17651;52.262;10.498;2024-03-06T11:47:55;29.27;;;17.25;;
30970;SDS011;17651;52.262;10.498;2024-03-06T11:52:19;32.60;;;17.45;;
30970;SDS011;17651;52.262;10.498;2024-03-06T11:54:30;34.40;;;17.30;;
30970;SDS011;17651;52.262;10.498;2024-03-06T11:56:45;28.88;;;18.00;;
30970;SDS011;17651;52.262;10.498;2024-03-06T11:59:00;31.70;;;18.35;;
30970;SDS011;17651;52.262;10.498;2024-03-06T12:01:11;28.80;;;16.38;;
30970;SDS011;17651;52.262;10.498;2024-03-06T12:03:22;33.88;;;17.25;;
30970;SDS011;17651;52.262;10.498;2024-03-06T12:05:35;30.30;;;17.50;;
30970;SDS011;17651;52.262;10.498;2024-03-06T12:07:47;36.28;;;17.33;;
30970;SDS011;17651;52.262;10.498;2024-03-06T12:09:59;27.75;;;17.55;;
30970;SDS011;17651;52.262;10.498;2024-03-06T12:12:10;30.38;;;18.65;;
30970;SDS011;17651;52.262;10.498;2024-03-06T12:14:21;30.90;;;17.48;;
30970;SDS011;17651;52.262;10.498;2024-03-06T12:16:33;29.80;;;18.20;;
30970;SDS011;17651;52.262;10.498;2024-03-06T12:18:45;28.98;;;17.77;;
30970;SDS011;17651;52.262;10.498;2024-03-06T12:20:56;27.00;;;16.80;;
30970;SDS011;17651;52.262;10.498;2024-03-06T12:23:07;29.45;;;17.77;;
30970;SDS011;17651;52.262;10.498;2024-03-06T12:25:22;27.52;;;17.27;;
30970;SDS011;17651;52.262;10.498;2024-03-06T12:27:33;29.85;;;16.65;;
30970;SDS011;17651;52.262;10.498;2024-03-06T12:29:44;26.50;;;16.35;;
30970;SDS011;17651;52.262;10.498;2024-03-06T12:31:56;28.80;;;16.63;;
30970;SDS011;17651;52.262;10.498;2024-03-06T12:34:08;28.33;;;16.90;;
30970;SDS011;17651;52.262;10.498;2024-03-06T12:36:24;27.25;;;17.02;;
30970;SDS011;17651;52.262;10.498;2024-03-06T12:38:36;27.50;;;16.58;;
30970;SDS011;17651;52.262;10.498;2024-03-06T12:40:47;32.85;;;17.65;;
30970;SDS011;17651;52.262;10.498;2024-03-06T12:42:58;30.20;;;16.80;;
30970;SDS011;17651;52.262;10.498;2024-03-06T12:45:09;27.42;;;17.10;;
30970;SDS011;17651;52.262;10.498;2024-03-06T12:47:20;29.40;;;17.17;;
30970;SDS011;17651;52.262;10.498;2024-03-06T12:49:32;28.98;;;17.67;;
30970;SDS011;17651;52.262;10.498;2024-03-06T12:51:43;24.38;;;15.35;;